Time;durP1;ratioP1;P1;durP2;ratioP2;P2;SDS_P1;SDS_P2;PMS_P1;PMS_P2;Temp;Humidity;BMP_temperature;BMP_pressure;BME280_temperature;BME280_humidity;BME280_pressure;Samples;Min_cycle;Max_cycle;Signal;HPM_P1;HPM_P2
2021/07/11 00:00:32;;;;;;;2.10;2.00;;;18.90;99.90;;;;;;5060023;28;20553;-60
2021/07/11 00:02:58;;;;;;;2.25;2.05;;;18.80;99.90;;;;;;5056496;28;20184;-57
2021/07/11 00:05:25;;;;;;;2.33;2.15;;;18.80;99.90;;;;;;5057511;28;20185;-57
2021/07/11 00:07:52;;;;;;;2.40;2.20;;;18.70;99.90;;;;;;5066620;28;20188;-58
2021/07/11 00:10:18;;;;;;;2.20;2.00;;;18.70;99.90;;;;;;5059188;28;20232;-59
2021/07/11 00:12:46;;;;;;;2.65;2.45;;;18.60;99.90;;;;;;5059209;28;20270;-59
2021/07/11 00:15:15;;;;;;;2.75;2.55;;;18.50;99.90;;;;;;5061998;28;20268;-57
2021/07/11 00:17:42;;;;;;;5.40;2.60;;;18.40;99.90;;;;;;5058440;28;20199;-58
2021/07/11 00:20:09;;;;;;;2.70;2.50;;;18.30;99.90;;;;;;5054857;28;20212;-58
2021/07/11 00:22:35;;;;;;;4.70;2.20;;;18.30;99.90;;;;;;5054916;28;20702;-58
2021/07/11 00:25:01;;;;;;;2.63;2.40;;;18.20;99.90;;;;;;5059862;28;20211;-59
2021/07/11 00:27:27;;;;;;;2.53;2.37;;;18.20;99.90;;;;;;5063127;28;20509;-57
2021/07/11 00:29:53;;;;;;;2.07;1.97;;;18.10;99.90;;;;;;5058304;28;20785;-59
2021/07/11 00:32:18;;;;;;;2.53;2.33;;;18.00;99.90;;;;;;5057651;28;20188;-58
2021/07/11 00:34:44;;;;;;;2.23;2.07;;;18.00;99.90;;;;;;5054362;28;20300;-58
2021/07/11 00:37:09;;;;;;;2.40;2.30;;;17.90;99.90;;;;;;5055985;28;20201;-58
2021/07/11 00:39:35;;;;;;;1.97;1.87;;;17.90;99.90;;;;;;5058596;28;20311;-57
2021/07/11 00:42:01;;;;;;;4.00;2.10;;;18.00;99.90;;;;;;5061278;28;20270;-59
2021/07/11 00:44:26;;;;;;;2.37;2.17;;;17.90;99.90;;;;;;5065266;28;20181;-57
2021/07/11 00:46:52;;;;;;;2.37;2.17;;;17.90;99.90;;;;;;5058105;28;20323;-58
2021/07/11 00:49:18;;;;;;;2.00;1.90;;;17.90;99.90;;;;;;5062324;28;20287;-58
2021/07/11 00:51:44;;;;;;;2.28;1.88;;;17.90;99.90;;;;;;5060790;28;20200;-58
2021/07/11 00:54:10;;;;;;;2.03;1.93;;;17.80;99.90;;;;;;5062242;28;20185;-59
2021/07/11 00:56:36;;;;;;;1.80;1.70;;;17.80;99.90;;;;;;5054878;28;20440;-58
2021/07/11 00:59:02;;;;;;;2.63;2.00;;;18.00;99.90;;;;;;5058277;28;20474;-59
2021/07/11 01:01:37;;;;;;;2.40;2.30;;;17.80;99.90;;;;;;5057963;28;20453;-58
2021/07/11 01:04:08;;;;;;;2.35;2.10;;;17.80;99.90;;;;;;5052606;28;20531;-58
2021/07/11 01:06:37;;;;;;;2.35;2.25;;;17.70;99.90;;;;;;5057268;28;20189;-57
2021/07/11 01:09:08;;;;;;;2.10;2.00;;;17.70;99.90;;;;;;5055565;28;20205;-58
2021/07/11 01:11:43;;;;;;;2.20;2.10;;;17.80;99.90;;;;;;5057383;28;20608;-58
2021/07/11 01:14:09;;;;;;;2.83;2.38;;;17.70;99.90;;;;;;5057970;28;20180;-58
2021/07/11 01:16:37;;;;;;;2.15;1.98;;;17.70;99.90;;;;;;5054289;28;20293;-58
2021/07/11 01:19:41;;;;;;;2.10;2.00;;;17.80;99.90;;;;;;5053274;28;20259;-59
2021/07/11 01:22:12;;;;;;;2.33;2.13;;;17.70;99.90;;;;;;5026438;28;20236;-58
2021/07/11 01:24:57;;;;;;;2.15;1.95;;;17.70;99.90;;;;;;5068750;28;20253;-58
2021/07/11 01:27:24;;;;;;;2.13;2.03;;;17.70;99.90;;;;;;5067661;28;20182;-58
2021/07/11 01:29:51;;;;;;;2.38;2.08;;;17.70;99.90;;;;;;5061940;28;20217;-58
2021/07/11 01:32:18;;;;;;;2.15;1.95;;;17.80;99.90;;;;;;5067608;28;20181;-58
2021/07/11 01:34:44;;;;;;;2.03;1.90;;;17.80;99.90;;;;;;5063013;28;20212;-58
2021/07/11 01:37:11;;;;;;;2.55;1.80;;;17.70;99.90;;;;;;5059331;28;20181;-57
2021/07/11 01:39:38;;;;;;;2.47;2.00;;;17.70;99.90;;;;;;5056467;28;20205;-58
2021/07/11 01:42:04;;;;;;;2.03;1.92;;;17.70;99.90;;;;;;5059857;28;20291;-58
2021/07/11 01:44:31;;;;;;;1.98;1.88;;;17.60;99.90;;;;;;5060710;28;20209;-57
2021/07/11 01:46:57;;;;;;;3.30;2.05;;;17.70;99.90;;;;;;5060525;28;20263;-58
2021/07/11 01:49:23;;;;;;;1.77;1.67;;;17.70;99.90;;;;;;5061558;28;20213;-56
2021/07/11 01:51:49;;;;;;;3.17;2.35;;;17.70;99.90;;;;;;5061514;28;20193;-57
2021/07/11 01:54:15;;;;;;;3.00;2.00;;;17.60;99.90;;;;;;5060180;28;20562;-56
2021/07/11 01:56:41;;;;;;;2.73;2.53;;;17.30;99.90;;;;;;5064567;28;20204;-57
2021/07/11 01:59:12;;;;;;;2.40;2.20;;;17.80;99.90;;;;;;5060043;28;20466;-57
2021/07/11 02:01:38;;;;;;;3.40;2.10;;;17.70;99.90;;;;;;5060133;28;20252;-56
2021/07/11 02:04:04;;;;;;;2.07;1.97;;;17.80;99.90;;;;;;5066860;28;20185;-57
2021/07/11 02:06:29;;;;;;;2.17;1.97;;;17.80;99.90;;;;;;5065821;28;20737;-55
2021/07/11 02:08:55;;;;;;;3.23;2.30;;;17.90;99.90;;;;;;5061357;28;20208;-57
2021/07/11 02:11:24;;;;;;;2.37;2.10;;;17.80;99.90;;;;;;5062784;28;20195;-57
2021/07/11 02:13:58;;;;;;;2.00;1.90;;;17.80;99.90;;;;;;5055768;28;20662;-56
2021/07/11 02:16:35;;;;;;;2.05;1.85;;;17.80;99.90;;;;;;5059112;28;20189;-56
2021/07/11 02:19:02;;;;;;;2.15;2.05;;;17.80;99.90;;;;;;5066979;28;20380;-57
2021/07/11 02:21:28;;;;;;;1.90;1.80;;;17.80;99.90;;;;;;5062627;28;20235;-57
2021/07/11 02:23:55;;;;;;;2.85;2.05;;;17.80;99.90;;;;;;5064055;28;20192;-57
2021/07/11 02:26:26;;;;;;;1.98;1.88;;;17.80;99.90;;;;;;5060653;28;20681;-57
2021/07/11 02:28:52;;;;;;;2.70;2.50;;;17.80;99.90;;;;;;5060378;28;20232;-57
2021/07/11 02:31:19;;;;;;;3.38;2.30;;;17.90;99.90;;;;;;5064665;28;20186;-57
2021/07/11 02:33:46;;;;;;;2.25;2.05;;;17.80;99.90;;;;;;5066761;28;20673;-57
2021/07/11 02:36:28;;;;;;;2.60;2.40;;;17.80;99.90;;;;;;5062709;28;20701;-57
2021/07/11 02:38:55;;;;;;;2.70;2.50;;;17.70;99.90;;;;;;5057777;28;20236;-56
2021/07/11 02:41:25;;;;;;;2.30;2.15;;;17.70;99.90;;;;;;5058943;28;20296;-57
2021/07/11 02:43:52;;;;;;;4.93;2.30;;;17.70;99.90;;;;;;5057856;28;20264;-57
2021/07/11 02:46:24;;;;;;;2.20;2.10;;;17.60;99.90;;;;;;5064112;28;20239;-58
2021/07/11 02:48:51;;;;;;;1.90;1.80;;;17.70;99.90;;;;;;5054301;28;20197;-58
2021/07/11 02:51:21;;;;;;;2.50;2.00;;;17.80;99.90;;;;;;5055461;28;20203;-58
2021/07/11 02:53:48;;;;;;;2.20;2.00;;;17.70;99.90;;;;;;5069166;28;20258;-58
2021/07/11 02:56:18;;;;;;;2.30;2.10;;;17.60;99.90;;;;;;5066059;28;20277;-59
2021/07/11 02:58:48;;;;;;;2.60;2.40;;;17.80;99.90;;;;;;5055183;28;20205;-58
2021/07/11 03:01:15;;;;;;;2.78;2.35;;;17.90;99.90;;;;;;5056733;28;20205;-58
2021/07/11 03:03:42;;;;;;;2.03;1.88;;;17.90;99.90;;;;;;5064729;28;20185;-58
2021/07/11 03:06:08;;;;;;;2.10;2.00;;;17.90;99.90;;;;;;5056182;28;20182;-58
2021/07/11 03:08:33;;;;;;;2.50;2.30;;;17.90;99.90;;;;;;5064032;28;20314;-58
2021/07/11 03:11:01;;;;;;;2.30;2.20;;;17.80;99.90;;;;;;5058962;28;20177;-58
2021/07/11 03:13:28;;;;;;;2.05;1.85;;;17.80;99.90;;;;;;5050851;28;20177;-58
2021/07/11 03:15:54;;;;;;;1.90;1.80;;;17.80;99.90;;;;;;5062689;28;20238;-58
2021/07/11 03:18:21;;;;;;;2.08;1.98;;;17.80;99.90;;;;;;5061745;28;20205;-57
2021/07/11 03:20:48;;;;;;;2.60;2.33;;;17.80;99.90;;;;;;5050459;28;20235;-58
2021/07/11 03:23:15;;;;;;;2.30;1.98;;;17.80;99.90;;;;;;5068312;28;20192;-57
2021/07/11 03:25:41;;;;;;;1.95;1.85;;;17.90;99.90;;;;;;5066414;28;20706;-57
2021/07/11 03:28:07;;;;;;;2.00;1.90;;;17.80;99.90;;;;;;5057368;28;20190;-58
2021/07/11 03:30:43;;;;;;;2.15;1.75;;;17.70;99.90;;;;;;5059956;28;21019;-57
2021/07/11 03:33:09;;;;;;;1.92;1.77;;;17.70;99.90;;;;;;5060697;28;20231;-58
2021/07/11 03:35:58;;;;;;;2.10;1.90;;;17.70;99.90;;;;;;5062659;28;20707;-58
2021/07/11 03:38:31;;;;;;;2.15;1.95;;;17.70;99.90;;;;;;5038809;28;20198;-58
2021/07/11 03:40:57;;;;;;;2.22;2.13;;;17.60;99.90;;;;;;5063303;28;20215;-58
2021/07/11 03:43:26;;;;;;;2.38;2.20;;;17.70;99.90;;;;;;5050940;28;20181;-58
2021/07/11 03:45:55;;;;;;;2.35;2.17;;;17.70;99.90;;;;;;5062807;28;20185;-57
2021/07/11 03:48:24;;;;;;;2.47;2.28;;;17.70;99.90;;;;;;5063411;28;20569;-58
2021/07/11 03:51:04;;;;;;;1.88;1.77;;;17.70;99.90;;;;;;5055080;28;20196;-57
2021/07/11 03:53:32;;;;;;;2.50;2.30;;;17.70;99.90;;;;;;5058068;28;20238;-57
2021/07/11 03:56:00;;;;;;;2.53;2.33;;;17.70;99.90;;;;;;5056293;28;20235;-57
2021/07/11 03:58:33;;;;;;;2.17;2.08;;;17.70;99.90;;;;;;5051655;28;20178;-58
2021/07/11 04:00:59;;;;;;;2.60;2.05;;;17.70;99.90;;;;;;5059128;28;20205;-57
2021/07/11 04:03:26;;;;;;;2.33;2.13;;;17.70;99.90;;;;;;5056893;28;20324;-57
2021/07/11 04:05:52;;;;;;;2.17;1.98;;;17.70;99.90;;;;;;5062882;28;20227;-57
2021/07/11 04:08:20;;;;;;;2.47;2.30;;;17.80;99.90;;;;;;5057534;28;20550;-56
2021/07/11 04:10:47;;;;;;;2.53;2.15;;;17.80;99.90;;;;;;5057244;28;20184;-57
2021/07/11 04:13:14;;;;;;;2.78;2.58;;;17.90;99.90;;;;;;5053294;28;20280;-56
2021/07/11 04:15:41;;;;;;;2.30;2.10;;;17.90;99.90;;;;;;5070996;28;20529;-57
2021/07/11 04:18:13;;;;;;;2.53;2.30;;;17.80;99.90;;;;;;5056748;28;20641;-58
2021/07/11 04:20:41;;;;;;;2.50;2.30;;;17.90;99.90;;;;;;5053264;28;20212;-57
2021/07/11 04:23:07;;;;;;;2.60;2.40;;;17.90;99.90;;;;;;5057154;28;20177;-57
2021/07/11 04:25:35;;;;;;;2.10;1.95;;;17.80;99.90;;;;;;5065226;28;20186;-56
2021/07/11 04:28:02;;;;;;;2.60;2.40;;;17.90;99.90;;;;;;5066873;28;20189;-57
2021/07/11 04:30:29;;;;;;;2.50;2.30;;;17.90;99.90;;;;;;5065484;28;20220;-56
2021/07/11 04:32:55;;;;;;;2.20;2.10;;;17.90;99.90;;;;;;5057534;28;20216;-57
2021/07/11 04:35:21;;;;;;;2.55;2.35;;;17.90;99.90;;;;;;5058077;28;20210;-56
2021/07/11 04:37:47;;;;;;;2.20;2.00;;;17.90;99.90;;;;;;5059781;28;20211;-55
2021/07/11 04:40:13;;;;;;;2.57;2.37;;;18.00;99.90;;;;;;5055206;28;20698;-57
2021/07/11 04:42:39;;;;;;;2.00;1.90;;;18.10;99.90;;;;;;5056797;28;20205;-56
2021/07/11 04:45:06;;;;;;;1.90;1.80;;;18.10;99.90;;;;;;5060544;28;20711;-57
2021/07/11 04:47:32;;;;;;;2.40;2.20;;;18.10;99.90;;;;;;5066060;28;20588;-57
2021/07/11 04:49:57;;;;;;;2.77;2.57;;;18.10;99.90;;;;;;5058554;28;20209;-56
2021/07/11 04:52:24;;;;;;;3.10;2.90;;;18.20;99.90;;;;;;5057246;28;20638;-57
2021/07/11 04:54:50;;;;;;;2.55;2.35;;;18.20;99.90;;;;;;5059708;28;20197;-57
2021/07/11 04:57:16;;;;;;;2.40;2.20;;;18.30;99.90;;;;;;5055876;28;20184;-63
2021/07/11 04:59:41;;;;;;;2.90;2.20;;;18.30;99.90;;;;;;5055373;28;20255;-65
2021/07/11 05:02:07;;;;;;;2.60;2.40;;;18.30;99.90;;;;;;5053107;28;20482;-58
2021/07/11 05:04:33;;;;;;;3.17;2.63;;;18.20;99.90;;;;;;5057444;28;20512;-63
2021/07/11 05:06:58;;;;;;;3.33;2.20;;;18.20;99.90;;;;;;5052455;28;20196;-59
2021/07/11 05:09:25;;;;;;;2.53;2.33;;;18.20;99.90;;;;;;5055420;28;20208;-60
2021/07/11 05:11:51;;;;;;;3.17;2.60;;;18.10;99.90;;;;;;5059463;28;20669;-60
2021/07/11 05:14:17;;;;;;;3.20;2.90;;;18.20;99.90;;;;;;5054456;28;20196;-59
2021/07/11 05:16:42;;;;;;;3.03;2.43;;;18.10;99.90;;;;;;5053252;28;20444;-58
2021/07/11 05:19:08;;;;;;;2.50;2.30;;;17.90;99.90;;;;;;5056251;28;20232;-58
2021/07/11 05:21:34;;;;;;;2.70;2.50;;;17.70;99.90;;;;;;5055220;28;20564;-60
2021/07/11 05:24:00;;;;;;;2.63;2.43;;;17.90;99.90;;;;;;5058397;28;20191;-60
2021/07/11 05:26:26;;;;;;;2.97;2.60;;;17.90;99.90;;;;;;5054682;28;20530;-60
2021/07/11 05:28:51;;;;;;;2.87;2.67;;;17.90;99.90;;;;;;5050928;28;20207;-60
2021/07/11 05:31:17;;;;;;;2.83;2.60;;;17.80;99.90;;;;;;5053016;28;20442;-61
2021/07/11 05:33:43;;;;;;;2.60;2.40;;;17.90;99.90;;;;;;5053360;28;20192;-60
2021/07/11 05:36:11;;;;;;;2.80;2.60;;;17.90;99.90;;;;;;5053349;28;20447;-59
2021/07/11 05:38:39;;;;;;;2.47;2.28;;;17.90;99.90;;;;;;5056030;28;20520;-60
2021/07/11 05:41:05;;;;;;;2.53;2.33;;;18.00;99.90;;;;;;5060341;28;20213;-60
2021/07/11 05:43:31;;;;;;;3.35;2.30;;;18.10;99.90;;;;;;5052999;28;20184;-63
2021/07/11 05:45:59;;;;;;;2.78;2.55;;;18.20;99.90;;;;;;5052963;28;20178;-61
2021/07/11 05:48:26;;;;;;;2.20;2.00;;;18.40;99.90;;;;;;5051406;28;20178;-60
2021/07/11 05:50:51;;;;;;;1.90;1.80;;;18.50;99.90;;;;;;5056651;28;20185;-60
2021/07/11 05:53:17;;;;;;;2.30;2.20;;;18.70;99.90;;;;;;5051605;28;20646;-60
2021/07/11 05:55:43;;;;;;;2.33;2.23;;;19.00;99.90;;;;;;5049739;28;20174;-61
2021/07/11 05:58:09;;;;;;;2.90;2.60;;;19.00;99.90;;;;;;5056408;28;20443;-59
2021/07/11 06:00:35;;;;;;;3.77;2.80;;;18.90;99.90;;;;;;5048437;28;20448;-62
2021/07/11 06:03:01;;;;;;;3.23;2.53;;;19.20;99.90;;;;;;5054095;28;20474;-61
2021/07/11 06:05:27;;;;;;;2.45;2.25;;;19.50;99.90;;;;;;5053425;28;20801;-64
2021/07/11 06:07:53;;;;;;;2.50;2.30;;;19.60;99.90;;;;;;5052504;28;20185;-60
2021/07/11 06:10:18;;;;;;;3.10;2.53;;;19.70;99.90;;;;;;5064135;28;20575;-56
2021/07/11 06:12:45;;;;;;;2.63;2.43;;;19.90;99.90;;;;;;5075228;28;20189;-57
2021/07/11 06:15:13;;;;;;;2.88;2.67;;;20.00;99.90;;;;;;5059929;28;20663;-56
2021/07/11 06:17:39;;;;;;;3.67;3.38;;;20.20;99.90;;;;;;5059005;28;20181;-56
2021/07/11 06:20:08;;;;;;;2.23;2.10;;;20.40;99.90;;;;;;5056174;28;20216;-56
2021/07/11 06:22:34;;;;;;;2.60;2.40;;;20.60;99.90;;;;;;5057637;28;20682;-56
2021/07/11 06:25:06;;;;;;;2.33;2.13;;;20.90;99.90;;;;;;5060537;28;20189;-55
2021/07/11 06:27:39;;;;;;;3.13;2.35;;;21.10;99.90;;;;;;5068574;28;20176;-57
2021/07/11 06:30:09;;;;;;;2.55;2.35;;;21.20;99.90;;;;;;5055379;28;20289;-56
2021/07/11 06:32:35;;;;;;;2.28;2.17;;;21.30;99.90;;;;;;5059715;28;20174;-55
2021/07/11 06:35:01;;;;;;;2.05;1.95;;;21.20;99.90;;;;;;5062278;28;20201;-57
2021/07/11 06:37:26;;;;;;;2.47;2.07;;;21.30;99.90;;;;;;5063073;28;20192;-56
2021/07/11 06:39:52;;;;;;;2.80;2.60;;;21.30;99.80;;;;;;5062632;28;20463;-55
2021/07/11 06:42:18;;;;;;;2.80;2.00;;;21.30;99.90;;;;;;5064094;28;20301;-56
2021/07/11 06:44:43;;;;;;;2.30;2.10;;;21.20;99.60;;;;;;5064783;28;20267;-55
2021/07/11 06:47:09;;;;;;;2.43;2.23;;;21.20;99.20;;;;;;5066676;28;20185;-56
2021/07/11 06:49:35;;;;;;;2.20;2.00;;;21.20;99.10;;;;;;5061819;28;20615;-55
2021/07/11 06:52:02;;;;;;;2.37;2.20;;;21.70;98.40;;;;;;5059819;28;20205;-56
2021/07/11 06:54:28;;;;;;;1.97;1.87;;;21.90;98.70;;;;;;5068022;28;20947;-54
2021/07/11 06:56:53;;;;;;;2.33;2.13;;;22.80;97.00;;;;;;5061785;28;20772;-55
2021/07/11 06:59:19;;;;;;;2.93;2.00;;;23.10;95.60;;;;;;5060905;28;20297;-56
2021/07/11 07:01:45;;;;;;;2.60;2.10;;;23.20;95.20;;;;;;5065924;28;20647;-56
2021/07/11 07:04:11;;;;;;;2.37;2.17;;;22.90;95.60;;;;;;5063467;28;20436;-55
2021/07/11 07:06:36;;;;;;;2.50;1.90;;;22.70;95.80;;;;;;5066164;28;20678;-56
2021/07/11 07:09:02;;;;;;;2.10;2.00;;;22.90;95.70;;;;;;5057428;28;20236;-55
2021/07/11 07:11:28;;;;;;;2.00;1.90;;;23.30;95.30;;;;;;5054381;28;20189;-56
2021/07/11 07:13:53;;;;;;;2.10;1.90;;;24.90;93.40;;;;;;5062278;28;20446;-57
2021/07/11 07:16:19;;;;;;;2.03;1.73;;;26.20;90.70;;;;;;5067100;28;20286;-56
2021/07/11 07:18:45;;;;;;;2.07;1.87;;;27.80;85.00;;;;;;5060688;28;20216;-56
2021/07/11 07:21:10;;;;;;;2.23;1.70;;;29.50;75.90;;;;;;5059921;28;20367;-56
2021/07/11 07:23:36;;;;;;;2.30;1.83;;;28.70;72.50;;;;;;5051204;28;20239;-56
2021/07/11 07:26:02;;;;;;;2.63;2.43;;;28.70;74.60;;;;;;5057744;28;20251;-56
2021/07/11 07:28:27;;;;;;;1.70;1.60;;;28.50;72.30;;;;;;5064196;28;20672;-56
2021/07/11 07:30:53;;;;;;;1.80;1.70;;;28.10;74.80;;;;;;5061441;28;20442;-56
2021/07/11 07:33:19;;;;;;;3.83;3.27;;;28.30;73.80;;;;;;5051878;28;20235;-56
2021/07/11 07:35:44;;;;;;;2.10;1.90;;;27.20;75.30;;;;;;5061372;28;20199;-57
2021/07/11 07:38:10;;;;;;;2.33;2.13;;;26.50;78.90;;;;;;5056713;28;20189;-56
2021/07/11 07:40:36;;;;;;;2.10;2.00;;;26.00;81.10;;;;;;5060499;28;20212;-57
2021/07/11 07:43:02;;;;;;;4.07;2.13;;;25.70;82.50;;;;;;5062345;28;20217;-55
2021/07/11 07:45:28;;;;;;;3.40;2.00;;;25.40;80.90;;;;;;5063405;28;20191;-55
2021/07/11 07:47:54;;;;;;;1.93;1.83;;;25.30;81.90;;;;;;5062609;28;20445;-55
2021/07/11 07:50:19;;;;;;;2.13;2.00;;;25.20;82.70;;;;;;5060752;28;20207;-57
2021/07/11 07:52:45;;;;;;;2.10;1.80;;;24.90;84.70;;;;;;5058529;28;20225;-56
2021/07/11 07:55:11;;;;;;;2.20;2.10;;;24.70;85.10;;;;;;5072573;28;20601;-56
2021/07/11 07:57:37;;;;;;;2.00;1.80;;;25.00;85.10;;;;;;5064460;28;20201;-54
2021/07/11 08:00:10;;;;;;;2.03;1.93;;;25.00;85.10;;;;;;5057126;28;20465;-56
2021/07/11 08:02:36;;;;;;;2.70;2.27;;;24.90;86.00;;;;;;5071167;28;20206;-56
2021/07/11 08:05:02;;;;;;;2.10;2.00;;;25.40;85.70;;;;;;5051274;28;20446;-56
2021/07/11 08:07:28;;;;;;;1.90;1.80;;;26.10;84.00;;;;;;5056242;28;20189;-55
2021/07/11 08:09:54;;;;;;;2.63;2.43;;;26.80;80.80;;;;;;5051142;28;22085;-54
2021/07/11 08:12:20;;;;;;;1.97;1.87;;;27.40;78.70;;;;;;5051516;28;20499;-55
2021/07/11 08:14:45;;;;;;;2.07;1.70;;;28.10;75.10;;;;;;5053769;28;20466;-55
2021/07/11 08:17:11;;;;;;;1.90;1.80;;;29.20;72.90;;;;;;5059760;28;20227;-54
2021/07/11 08:19:37;;;;;;;1.90;1.80;;;29.30;68.50;;;;;;5053869;28;20230;-55
2021/07/11 08:22:03;;;;;;;1.70;1.60;;;29.80;66.90;;;;;;5055650;28;20225;-55
2021/07/11 08:24:28;;;;;;;1.80;1.70;;;31.00;63.40;;;;;;5052775;28;20220;-54
2021/07/11 08:26:54;;;;;;;2.33;1.60;;;30.80;60.60;;;;;;5053334;28;21251;-56
2021/07/11 08:29:19;;;;;;;2.00;1.80;;;31.80;59.90;;;;;;5051901;28;20216;-57
2021/07/11 08:31:46;;;;;;;2.63;2.00;;;31.90;58.00;;;;;;5052461;28;20210;-57
2021/07/11 08:34:12;;;;;;;2.10;1.50;;;31.20;59.80;;;;;;5052438;28;20266;-55
2021/07/11 08:36:37;;;;;;;2.70;2.00;;;30.30;59.40;;;;;;5055803;28;20730;-54
2021/07/11 08:39:04;;;;;;;2.07;1.90;;;30.00;61.70;;;;;;5051065;28;20279;-54
2021/07/11 08:41:30;;;;;;;1.50;1.40;;;31.20;58.80;;;;;;5049611;28;20217;-54
2021/07/11 08:43:55;;;;;;;1.93;1.73;;;31.90;56.90;;;;;;5056642;28;20853;-55
2021/07/11 08:46:21;;;;;;;1.60;1.50;;;30.70;57.60;;;;;;5056564;28;20195;-59
2021/07/11 08:48:48;;;;;;;1.90;1.80;;;30.60;58.40;;;;;;5054713;28;20205;-55
2021/07/11 08:51:15;;;;;;;2.20;2.00;;;29.00;61.50;;;;;;5056081;28;20256;-57
2021/07/11 08:53:43;;;;;;;1.97;1.53;;;27.70;65.80;;;;;;5051193;28;21119;-54
2021/07/11 08:56:21;;;;;;;1.80;1.70;;;26.50;68.50;;;;;;5057293;28;21249;-56
2021/07/11 08:58:55;;;;;;;2.20;2.00;;;25.90;73.00;;;;;;5053717;28;20473;-56
2021/07/11 09:01:24;;;;;;;4.10;2.10;;;25.30;74.40;;;;;;5055112;28;20464;-57
2021/07/11 09:04:00;;;;;;;2.83;1.73;;;24.70;76.90;;;;;;5049932;28;20444;-57
2021/07/11 09:06:26;;;;;;;2.87;2.33;;;24.00;79.10;;;;;;5054101;28;20434;-56
2021/07/11 09:09:01;;;;;;;2.00;1.90;;;24.00;80.90;;;;;;5051168;28;20995;-55
2021/07/11 09:11:27;;;;;;;1.60;1.50;;;23.70;82.10;;;;;;5051685;28;20479;-55
2021/07/11 09:13:52;;;;;;;2.50;2.30;;;23.40;83.90;;;;;;5051771;28;20612;-56
2021/07/11 09:16:18;;;;;;;2.00;1.90;;;23.10;87.20;;;;;;5055401;28;20192;-56
2021/07/11 09:18:43;;;;;;;2.40;2.20;;;23.00;88.60;;;;;;5050882;28;20209;-57
2021/07/11 09:21:13;;;;;;;3.10;2.50;;;22.90;88.80;;;;;;5057543;28;20562;-57
2021/07/11 09:23:40;;;;;;;2.70;2.10;;;22.80;89.40;;;;;;5051984;28;20188;-57
2021/07/11 09:26:05;;;;;;;2.20;2.07;;;22.60;90.10;;;;;;5052690;28;20861;-57
2021/07/11 09:28:34;;;;;;;2.00;1.90;;;22.60;90.30;;;;;;5054997;28;20570;-55
2021/07/11 09:31:13;;;;;;;2.13;1.90;;;22.60;90.30;;;;;;5052100;28;20178;-57
2021/07/11 09:33:43;;;;;;;2.23;2.10;;;22.70;88.10;;;;;;5054947;28;20891;-56
2021/07/11 09:36:20;;;;;;;2.00;1.70;;;22.80;87.40;;;;;;5053899;28;20988;-57
2021/07/11 09:38:53;;;;;;;1.90;1.80;;;23.00;87.80;;;;;;5049935;28;21011;-57
2021/07/11 09:41:33;;;;;;;2.63;2.23;;;22.90;87.00;;;;;;5055515;28;21087;-58
2021/07/11 09:44:00;;;;;;;2.00;1.90;;;23.10;87.10;;;;;;5058995;28;20443;-57
2021/07/11 09:46:28;;;;;;;2.23;1.90;;;23.30;86.20;;;;;;5056858;28;20490;-56
2021/07/11 09:48:54;;;;;;;2.00;1.80;;;23.40;84.90;;;;;;5060179;28;22434;-58
2021/07/11 09:51:29;;;;;;;2.43;2.23;;;23.20;85.70;;;;;;5056825;28;20439;-57
2021/07/11 09:54:07;;;;;;;1.77;1.67;;;23.70;85.90;;;;;;5057516;28;20430;-55
2021/07/11 09:56:32;;;;;;;2.10;1.90;;;24.10;85.00;;;;;;5065180;28;20525;-55
2021/07/11 09:59:01;;;;;;;2.20;2.00;;;24.40;84.30;;;;;;5056270;28;20751;-58
2021/07/11 10:01:30;;;;;;;1.90;1.80;;;24.40;83.00;;;;;;5057876;28;20212;-55
2021/07/11 10:03:58;;;;;;;1.90;1.80;;;24.30;83.30;;;;;;5054595;28;20785;-55
2021/07/11 10:06:27;;;;;;;2.20;2.00;;;24.20;84.30;;;;;;5058906;28;20459;-54
2021/07/11 10:08:53;;;;;;;3.33;1.97;;;24.20;83.50;;;;;;5059070;28;20931;-56
2021/07/11 10:11:18;;;;;;;2.00;1.90;;;24.10;84.80;;;;;;5056996;28;20467;-57
2021/07/11 10:13:44;;;;;;;2.60;2.13;;;23.80;84.80;;;;;;5053622;28;22082;-56
2021/07/11 10:16:12;;;;;;;2.40;2.00;;;23.70;86.80;;;;;;5057290;28;20173;-56
2021/07/11 10:18:39;;;;;;;2.00;1.90;;;23.30;87.60;;;;;;5067050;28;20211;-57
2021/07/11 10:21:06;;;;;;;3.77;2.40;;;23.70;88.20;;;;;;5064014;28;20442;-58
2021/07/11 10:23:37;;;;;;;4.43;2.57;;;24.10;85.50;;;;;;5056118;28;20814;-57
2021/07/11 10:26:04;;;;;;;2.60;2.10;;;25.00;83.10;;;;;;5059510;28;20443;-57
2021/07/11 10:28:33;;;;;;;1.90;1.80;;;25.40;81.30;;;;;;5054837;28;20533;-53
2021/07/11 10:30:59;;;;;;;2.30;2.10;;;25.30;79.90;;;;;;5056685;28;20443;-54
2021/07/11 10:33:27;;;;;;;2.20;1.83;;;25.20;80.40;;;;;;5059768;28;20441;-55
2021/07/11 10:36:00;;;;;;;2.03;1.83;;;25.30;80.50;;;;;;5059664;28;20445;-56
2021/07/11 10:38:31;;;;;;;3.60;2.07;;;25.40;80.40;;;;;;5056452;28;20438;-55
2021/07/11 10:41:17;;;;;;;2.67;2.30;;;25.20;80.90;;;;;;5058231;28;20543;-57
2021/07/11 10:43:45;;;;;;;2.27;1.87;;;24.90;82.30;;;;;;5053625;28;20501;-57
2021/07/11 10:46:12;;;;;;;2.27;1.77;;;24.70;83.80;;;;;;5056768;28;20428;-57
2021/07/11 10:48:38;;;;;;;2.30;2.10;;;24.40;83.00;;;;;;5059059;28;20882;-55
2021/07/11 10:51:04;;;;;;;3.07;1.80;;;23.90;83.90;;;;;;5055445;28;20461;-57
2021/07/11 10:53:37;;;;;;;2.13;2.00;;;23.80;85.40;;;;;;5056053;28;20452;-56
2021/07/11 10:56:05;;;;;;;2.23;2.00;;;23.50;86.00;;;;;;5054938;28;20886;-56
2021/07/11 10:58:39;;;;;;;2.30;1.93;;;23.40;84.70;;;;;;5060580;28;21007;-57
2021/07/11 11:01:19;;;;;;;2.20;2.00;;;23.40;86.20;;;;;;5072819;28;20924;-61
2021/07/11 11:03:50;;;;;;;2.00;1.90;;;23.10;86.70;;;;;;5055341;28;20432;-59
2021/07/11 11:06:18;;;;;;;2.30;2.03;;;23.10;89.20;;;;;;5058817;28;20459;-57
2021/07/11 11:08:47;;;;;;;2.30;2.10;;;23.10;88.60;;;;;;5054677;28;20506;-57
2021/07/11 11:11:13;;;;;;;2.93;2.40;;;23.20;88.00;;;;;;5057653;28;20436;-56
2021/07/11 11:13:39;;;;;;;2.50;2.30;;;23.00;86.50;;;;;;5055065;28;20860;-55
2021/07/11 11:16:14;;;;;;;3.40;2.73;;;23.00;88.60;;;;;;5051119;28;20436;-55
2021/07/11 11:18:43;;;;;;;2.03;1.93;;;23.00;88.60;;;;;;5053310;28;20977;-55
2021/07/11 11:21:14;;;;;;;2.20;2.00;;;23.00;86.90;;;;;;5053796;28;20944;-55
2021/07/11 11:23:41;;;;;;;2.27;2.07;;;22.80;86.70;;;;;;5060295;28;20450;-55
2021/07/11 11:26:09;;;;;;;2.40;1.87;;;22.90;86.70;;;;;;5053422;28;20436;-58
2021/07/11 11:28:40;;;;;;;2.80;1.97;;;22.80;86.50;;;;;;5061815;28;20442;-56
2021/07/11 11:31:08;;;;;;;2.33;1.80;;;22.60;86.70;;;;;;5053941;28;20440;-56
2021/07/11 11:33:53;;;;;;;2.20;2.00;;;22.70;86.80;;;;;;5055563;28;20447;-56
2021/07/11 11:36:22;;;;;;;1.97;1.87;;;22.60;87.00;;;;;;5056589;28;20963;-57
2021/07/11 11:38:48;;;;;;;2.00;1.90;;;22.60;87.70;;;;;;5051153;28;20469;-56
2021/07/11 11:41:16;;;;;;;2.47;2.27;;;22.80;86.80;;;;;;5058163;28;20469;-56
2021/07/11 11:43:42;;;;;;;2.83;1.67;;;22.90;87.60;;;;;;5060046;28;20812;-55
2021/07/11 11:46:08;;;;;;;1.80;1.70;;;22.70;87.90;;;;;;5059235;28;20523;-58
2021/07/11 11:48:35;;;;;;;2.00;1.80;;;22.90;87.10;;;;;;5051074;28;20442;-57
2021/07/11 11:51:05;;;;;;;2.07;1.87;;;22.90;87.00;;;;;;5053284;28;20451;-57
2021/07/11 11:53:41;;;;;;;2.53;2.33;;;23.10;86.50;;;;;;5052358;28;20798;-58
2021/07/11 11:56:11;;;;;;;2.90;2.40;;;23.40;86.50;;;;;;5057452;28;20828;-57
2021/07/11 11:58:37;;;;;;;1.90;1.80;;;23.50;86.10;;;;;;5064562;28;20976;-56
2021/07/11 12:01:08;;;;;;;1.73;1.63;;;24.00;84.00;;;;;;5058888;28;20432;-57
2021/07/11 12:03:36;;;;;;;2.17;2.00;;;24.20;83.30;;;;;;5060499;28;22065;-57
2021/07/11 12:06:10;;;;;;;3.17;2.50;;;24.60;81.60;;;;;;5054135;28;20466;-57
2021/07/11 12:08:40;;;;;;;1.90;1.80;;;24.70;80.70;;;;;;5056884;28;20609;-57
2021/07/11 12:11:07;;;;;;;1.70;1.60;;;24.80;80.40;;;;;;5059632;28;20953;-57
2021/07/11 12:13:33;;;;;;;1.90;1.80;;;24.90;79.70;;;;;;5050676;28;20436;-57
2021/07/11 12:16:11;;;;;;;2.10;1.93;;;24.40;80.30;;;;;;5059495;28;20540;-56
2021/07/11 12:18:41;;;;;;;2.43;2.23;;;24.20;84.40;;;;;;5049744;28;20580;-56
2021/07/11 12:21:06;;;;;;;2.00;1.90;;;24.40;81.40;;;;;;5062034;28;20439;-56
2021/07/11 12:23:32;;;;;;;1.57;1.47;;;24.50;80.90;;;;;;5057301;28;20443;-58
2021/07/11 12:26:03;;;;;;;1.90;1.80;;;24.60;80.30;;;;;;5054186;28;20247;-56
2021/07/11 12:28:29;;;;;;;2.20;2.10;;;24.50;80.80;;;;;;5063711;28;20313;-57
2021/07/11 12:30:56;;;;;;;2.10;1.90;;;25.00;79.80;;;;;;5051733;28;20523;-56
2021/07/11 12:33:32;;;;;;;2.37;1.90;;;25.20;78.70;;;;;;5058711;28;20187;-57
2021/07/11 12:36:00;;;;;;;1.90;1.80;;;25.40;77.70;;;;;;5056876;28;20449;-56
2021/07/11 12:38:34;;;;;;;2.07;1.97;;;25.40;77.80;;;;;;5055687;28;20474;-56
2021/07/11 12:41:02;;;;;;;2.00;1.80;;;25.20;78.70;;;;;;5059049;28;20437;-57
2021/07/11 12:43:31;;;;;;;1.93;1.83;;;25.20;77.40;;;;;;5056692;28;20453;-57
2021/07/11 12:46:02;;;;;;;3.73;2.23;;;25.20;78.90;;;;;;5062755;28;21027;-58
2021/07/11 12:48:46;;;;;;;2.63;2.00;;;25.20;80.20;;;;;;5062817;28;20439;-57
2021/07/11 12:51:17;;;;;;;2.17;2.07;;;24.90;79.50;;;;;;5062816;28;20608;-57